Time;durP1;ratioP1;P1;durP2;ratioP2;P2;SDS_P1;SDS_P2;PMS_P1;PMS_P2;Temp;Humidity;BMP_temperature;BMP_pressure;BME280_temperature;BME280_humidity;BME280_pressure;Samples;Min_cycle;Max_cycle;Signal;HPM_P1;HPM_P2
2020/12/24 00:01:40;;;;;;;0.90;0.90;;;;;;;;;;4997462;28;20180;-57
2020/12/24 00:04:06;;;;;;;1.05;1.05;;;;;;;;;;4998984;28;20207;-57
2020/12/24 00:06:31;;;;;;;1.10;1.00;;;;;;;;;;4997410;28;20175;-57
2020/12/24 00:08:56;;;;;;;1.25;1.10;;;;;;;;;;4996545;28;20191;-57
2020/12/24 00:11:23;;;;;;;0.87;0.87;;;;;;;;;;4998741;28;20174;-57
2020/12/24 00:13:48;;;;;;;0.90;0.90;;;;;;;;;;5001193;28;20206;-57
2020/12/24 00:16:13;;;;;;;1.02;1.02;;;;;;;;;;4997850;28;20628;-57
2020/12/24 00:18:38;;;;;;;1.15;1.00;;;;;;;;;;5004656;28;20234;-57
2020/12/24 00:21:07;;;;;;;1.17;1.08;;;;;;;;;;4996818;28;20169;-57
2020/12/24 00:23:32;;;;;;;1.00;1.00;;;;;;;;;;4994810;28;20659;-57
2020/12/24 00:25:57;;;;;;;0.80;0.80;;;;;;;;;;5001662;28;21166;-56
2020/12/24 00:28:22;;;;;;;1.10;1.00;;;;;;;;;;5003609;28;20191;-57
2020/12/24 00:30:47;;;;;;;2.38;1.10;;;;;;;;;;4998151;28;20204;-57
2020/12/24 00:33:13;;;;;;;1.58;1.20;;;;;;;;;;5010095;28;20180;-57
2020/12/24 00:35:38;;;;;;;1.67;1.50;;;;;;;;;;4999767;28;20246;-57
2020/12/24 00:38:04;;;;;;;0.97;0.97;;;;;;;;;;5007542;28;20211;-57
2020/12/24 00:40:29;;;;;;;1.47;1.20;;;;;;;;;;4999512;28;20173;-57
2020/12/24 00:42:54;;;;;;;1.38;0.85;;;;;;;;;;4996141;28;20183;-55
2020/12/24 00:45:19;;;;;;;1.00;1.00;;;;;;;;;;5005762;28;20279;-55
2020/12/24 00:47:44;;;;;;;1.00;1.00;;;;;;;;;;4996705;28;20177;-56
2020/12/24 00:50:10;;;;;;;1.00;1.00;;;;;;;;;;5004043;28;20186;-56
2020/12/24 00:52:35;;;;;;;1.98;1.45;;;;;;;;;;5001499;28;20187;-55
2020/12/24 00:55:00;;;;;;;1.35;1.25;;;;;;;;;;5011942;28;20233;-55
2020/12/24 00:57:25;;;;;;;1.10;1.10;;;;;;;;;;4999030;28;20191;-55
2020/12/24 00:59:50;;;;;;;1.30;1.20;;;;;;;;;;4998757;28;20597;-56
2020/12/24 01:02:15;;;;;;;1.00;1.00;;;;;;;;;;4992487;28;20178;-56
2020/12/24 01:04:40;;;;;;;1.90;1.10;;;;;;;;;;5003251;28;20190;-55
2020/12/24 01:07:06;;;;;;;1.95;1.30;;;;;;;;;;5000240;28;20248;-55
2020/12/24 01:09:31;;;;;;;1.23;1.10;;;;;;;;;;5007193;28;20189;-55
2020/12/24 01:11:56;;;;;;;1.23;1.13;;;;;;;;;;4992722;28;20519;-56
2020/12/24 01:14:21;;;;;;;1.40;1.30;;;;;;;;;;4997924;28;20176;-56
2020/12/24 01:16:46;;;;;;;1.20;1.10;;;;;;;;;;5002946;28;20178;-56
2020/12/24 01:19:11;;;;;;;1.00;1.00;;;;;;;;;;5002052;28;20222;-56
2020/12/24 01:21:37;;;;;;;1.10;1.10;;;;;;;;;;5005280;28;20180;-62
2020/12/24 01:24:02;;;;;;;1.17;1.17;;;;;;;;;;5000113;28;20207;-56
2020/12/24 01:26:27;;;;;;;3.07;1.23;;;;;;;;;;4998535;28;20214;-56
2020/12/24 01:28:52;;;;;;;1.93;1.20;;;;;;;;;;5001409;28;20192;-56
2020/12/24 01:31:17;;;;;;;1.33;1.23;;;;;;;;;;4996466;28;20749;-56
2020/12/24 01:33:42;;;;;;;1.70;1.60;;;;;;;;;;4999099;28;20175;-56
2020/12/24 01:36:07;;;;;;;2.05;1.23;;;;;;;;;;4994328;28;20183;-56
2020/12/24 01:38:33;;;;;;;1.10;1.10;;;;;;;;;;5000225;28;20305;-56
2020/12/24 01:40:58;;;;;;;1.20;1.10;;;;;;;;;;4997678;28;20179;-56
2020/12/24 01:43:23;;;;;;;1.10;1.10;;;;;;;;;;5001762;28;20184;-56
2020/12/24 01:45:55;;;;;;;1.33;1.23;;;;;;;;;;5002523;28;20368;-56
2020/12/24 01:48:21;;;;;;;1.50;1.40;;;;;;;;;;4999064;28;20260;-57
2020/12/24 01:50:47;;;;;;;1.40;1.30;;;;;;;;;;4991776;28;20627;-56
2020/12/24 01:53:17;;;;;;;1.40;1.40;;;;;;;;;;4992102;28;20685;-57
2020/12/24 01:55:42;;;;;;;1.37;1.27;;;;;;;;;;4994948;28;20181;-56
2020/12/24 01:58:08;;;;;;;1.25;1.20;;;;;;;;;;5001976;28;20642;-56
2020/12/24 02:00:33;;;;;;;1.43;1.30;;;;;;;;;;4996523;28;20266;-56
2020/12/24 02:02:58;;;;;;;1.20;1.20;;;;;;;;;;4996343;28;20185;-56
2020/12/24 02:05:23;;;;;;;1.13;1.10;;;;;;;;;;4994754;28;20176;-57
2020/12/24 02:07:50;;;;;;;1.40;1.30;;;;;;;;;;5000645;28;20545;-56
2020/12/24 02:10:15;;;;;;;1.23;1.13;;;;;;;;;;5003003;28;20189;-57
2020/12/24 02:12:40;;;;;;;1.20;1.17;;;;;;;;;;4994783;28;21235;-57
2020/12/24 02:15:05;;;;;;;1.00;1.00;;;;;;;;;;4999316;28;20184;-56
2020/12/24 02:17:31;;;;;;;1.13;1.05;;;;;;;;;;4999154;28;20297;-56
2020/12/24 02:19:56;;;;;;;1.15;1.15;;;;;;;;;;5005472;28;20171;-57
2020/12/24 02:22:21;;;;;;;1.33;1.33;;;;;;;;;;4991286;28;20213;-56
2020/12/24 02:24:46;;;;;;;2.60;1.25;;;;;;;;;;4999130;28;20192;-56
2020/12/24 02:27:11;;;;;;;1.23;1.20;;;;;;;;;;4993927;28;20213;-56
2020/12/24 02:29:37;;;;;;;2.40;1.55;;;;;;;;;;4997900;28;20235;-56
2020/12/24 02:32:02;;;;;;;1.43;1.33;;;;;;;;;;5004071;28;20183;-56
2020/12/24 02:34:27;;;;;;;1.23;1.20;;;;;;;;;;4997551;28;20200;-56
2020/12/24 02:36:52;;;;;;;1.27;1.17;;;;;;;;;;4995527;28;20210;-56
2020/12/24 02:39:17;;;;;;;1.37;1.30;;;;;;;;;;4997813;28;20213;-56
2020/12/24 02:41:43;;;;;;;1.50;1.40;;;;;;;;;;4999397;28;20276;-56
2020/12/24 02:44:08;;;;;;;1.50;1.40;;;;;;;;;;4999664;28;20199;-56
2020/12/24 02:46:33;;;;;;;1.50;1.40;;;;;;;;;;5003249;28;20172;-56
2020/12/24 02:48:58;;;;;;;1.87;1.70;;;;;;;;;;4998395;28;20192;-56
2020/12/24 02:51:24;;;;;;;1.40;1.30;;;;;;;;;;4999049;28;20185;-56
2020/12/24 02:53:49;;;;;;;1.27;1.27;;;;;;;;;;4994340;28;20191;-56
2020/12/24 02:56:14;;;;;;;1.60;1.50;;;;;;;;;;4994702;28;20647;-56
2020/12/24 02:58:39;;;;;;;1.30;1.23;;;;;;;;;;4992274;28;20207;-56
2020/12/24 03:01:04;;;;;;;1.42;1.33;;;;;;;;;;5003609;28;20656;-56
2020/12/24 03:03:29;;;;;;;1.63;1.53;;;;;;;;;;4993606;28;20191;-56
2020/12/24 03:05:55;;;;;;;1.63;1.53;;;;;;;;;;4994812;28;20275;-56
2020/12/24 03:08:20;;;;;;;1.47;1.43;;;;;;;;;;4996171;28;20179;-56
2020/12/24 03:10:45;;;;;;;1.30;1.30;;;;;;;;;;5005023;28;20179;-56
2020/12/24 03:13:11;;;;;;;1.23;1.13;;;;;;;;;;4998578;28;20181;-56
2020/12/24 03:15:36;;;;;;;1.40;1.20;;;;;;;;;;5004810;28;20280;-56
2020/12/24 03:18:01;;;;;;;1.30;1.20;;;;;;;;;;5007800;28;20740;-56
2020/12/24 03:20:26;;;;;;;2.40;1.40;;;;;;;;;;4995823;28;20178;-56
2020/12/24 03:22:51;;;;;;;1.48;1.38;;;;;;;;;;4990524;28;20182;-56
2020/12/24 03:25:17;;;;;;;1.87;1.77;;;;;;;;;;4994599;28;20218;-55
2020/12/24 03:27:42;;;;;;;1.95;1.40;;;;;;;;;;5005489;28;20217;-56
2020/12/24 03:30:09;;;;;;;1.55;1.40;;;;;;;;;;5002157;28;20278;-56
2020/12/24 03:32:34;;;;;;;1.40;1.30;;;;;;;;;;4990378;28;20642;-56
2020/12/24 03:34:59;;;;;;;1.30;1.20;;;;;;;;;;4994114;28;20612;-56
2020/12/24 03:37:24;;;;;;;1.33;1.30;;;;;;;;;;4996365;28;20216;-56
2020/12/24 03:39:49;;;;;;;1.70;1.60;;;;;;;;;;4999130;28;20255;-57
2020/12/24 03:42:14;;;;;;;1.70;1.60;;;;;;;;;;5007751;28;20540;-56
2020/12/24 03:44:39;;;;;;;1.50;1.40;;;;;;;;;;5011515;28;20208;-56
2020/12/24 03:47:05;;;;;;;2.10;1.42;;;;;;;;;;4998312;28;20199;-57
2020/12/24 03:49:30;;;;;;;2.07;1.97;;;;;;;;;;4998948;28;20206;-56
2020/12/24 03:51:55;;;;;;;2.00;1.70;;;;;;;;;;4997994;28;20674;-56
2020/12/24 03:54:20;;;;;;;1.60;1.50;;;;;;;;;;4995341;28;20642;-56
2020/12/24 03:56:45;;;;;;;1.40;1.30;;;;;;;;;;4998748;28;20268;-57
2020/12/24 03:59:10;;;;;;;2.05;1.85;;;;;;;;;;4999521;28;20207;-56
2020/12/24 04:01:36;;;;;;;2.50;1.83;;;;;;;;;;4997215;28;20526;-56
2020/12/24 04:04:01;;;;;;;1.75;1.65;;;;;;;;;;4991384;28;20176;-56
2020/12/24 04:06:26;;;;;;;1.83;1.50;;;;;;;;;;4998199;28;20186;-56
2020/12/24 04:08:51;;;;;;;1.70;1.60;;;;;;;;;;5008486;28;20175;-56
2020/12/24 04:11:18;;;;;;;1.30;1.20;;;;;;;;;;4999346;28;20209;-56
2020/12/24 04:13:43;;;;;;;1.43;1.33;;;;;;;;;;4993215;28;20530;-56
2020/12/24 04:16:08;;;;;;;1.40;1.40;;;;;;;;;;4995896;28;20625;-56
2020/12/24 04:18:33;;;;;;;1.50;1.40;;;;;;;;;;4998567;28;20209;-56
2020/12/24 04:20:58;;;;;;;1.70;1.60;;;;;;;;;;5001333;28;20201;-56
2020/12/24 04:23:24;;;;;;;1.50;1.40;;;;;;;;;;4999691;28;20545;-56
2020/12/24 04:25:49;;;;;;;1.50;1.40;;;;;;;;;;4999527;28;20192;-56
2020/12/24 04:28:14;;;;;;;1.57;1.47;;;;;;;;;;4997775;28;20238;-56
2020/12/24 04:30:41;;;;;;;1.75;1.52;;;;;;;;;;4997953;28;20676;-56
2020/12/24 04:33:06;;;;;;;1.60;1.50;;;;;;;;;;5000780;28;20176;-56
2020/12/24 04:35:31;;;;;;;1.38;1.27;;;;;;;;;;4994177;28;20586;-56
2020/12/24 04:37:56;;;;;;;1.52;1.48;;;;;;;;;;4995447;28;20200;-57
2020/12/24 04:40:21;;;;;;;1.43;1.33;;;;;;;;;;5000375;28;20169;-57
2020/12/24 04:42:47;;;;;;;1.75;1.23;;;;;;;;;;4995444;28;20176;-57
2020/12/24 04:45:12;;;;;;;1.67;1.57;;;;;;;;;;4991475;28;20206;-56
2020/12/24 04:47:38;;;;;;;2.83;1.50;;;;;;;;;;4996203;28;20714;-56
2020/12/24 04:50:04;;;;;;;1.40;1.30;;;;;;;;;;5004472;28;20177;-56
2020/12/24 04:52:29;;;;;;;1.40;1.30;;;;;;;;;;5003021;28;20597;-56
2020/12/24 04:54:55;;;;;;;1.50;1.37;;;;;;;;;;4994222;28;20172;-56
2020/12/24 04:57:21;;;;;;;1.30;1.20;;;;;;;;;;5001405;28;20543;-57
2020/12/24 04:59:47;;;;;;;1.90;1.67;;;;;;;;;;5000825;28;20607;-56
2020/12/24 05:02:12;;;;;;;1.33;1.20;;;;;;;;;;5001112;28;20640;-57
2020/12/24 05:04:37;;;;;;;1.40;1.20;;;;;;;;;;5003560;28;20546;-56
2020/12/24 05:07:03;;;;;;;1.50;1.40;;;;;;;;;;4995431;28;20176;-57
2020/12/24 05:09:28;;;;;;;1.70;1.30;;;;;;;;;;5000020;28;20306;-57
2020/12/24 05:11:54;;;;;;;1.70;1.47;;;;;;;;;;4999419;28;20697;-56
2020/12/24 05:14:20;;;;;;;2.10;1.40;;;;;;;;;;4997759;28;20191;-56
2020/12/24 05:16:59;;;;;;;1.23;1.13;;;;;;;;;;5003032;28;20315;-56
2020/12/24 05:19:24;;;;;;;1.40;1.30;;;;;;;;;;4995494;28;20647;-57
2020/12/24 05:21:50;;;;;;;1.23;1.23;;;;;;;;;;5000489;28;20601;-56
2020/12/24 05:24:25;;;;;;;1.63;1.10;;;;;;;;;;4995733;28;20291;-57
2020/12/24 05:26:51;;;;;;;1.97;1.50;;;;;;;;;;5003514;28;20686;-56
2020/12/24 05:29:16;;;;;;;1.63;1.20;;;;;;;;;;4999968;28;20608;-56
2020/12/24 05:31:41;;;;;;;1.47;1.37;;;;;;;;;;5006342;28;20595;-56
2020/12/24 05:34:06;;;;;;;1.73;1.00;;;;;;;;;;4997546;28;20197;-56
2020/12/24 05:36:31;;;;;;;1.30;1.20;;;;;;;;;;4998826;28;20185;-56
2020/12/24 05:38:57;;;;;;;1.50;1.10;;;;;;;;;;4998739;28;20201;-57
2020/12/24 05:41:25;;;;;;;1.63;1.20;;;;;;;;;;4994979;28;20188;-57
2020/12/24 05:43:54;;;;;;;1.80;1.40;;;;;;;;;;5000384;28;20182;-57
2020/12/24 05:46:19;;;;;;;2.87;1.20;;;;;;;;;;5002507;28;20588;-57
2020/12/24 05:48:44;;;;;;;1.10;1.10;;;;;;;;;;5003922;28;20585;-57
2020/12/24 05:51:15;;;;;;;1.52;1.08;;;;;;;;;;4996274;28;20249;-57
2020/12/24 05:53:41;;;;;;;2.03;1.57;;;;;;;;;;5001795;28;20267;-56
2020/12/24 05:56:07;;;;;;;1.90;0.90;;;;;;;;;;4996118;28;20699;-56
2020/12/24 05:58:39;;;;;;;2.67;1.20;;;;;;;;;;5001855;28;20210;-57
2020/12/24 06:01:11;;;;;;;1.00;1.00;;;;;;;;;;5001833;28;20592;-57
2020/12/24 06:03:43;;;;;;;3.10;1.10;;;;;;;;;;4994378;28;21028;-56
2020/12/24 06:06:12;;;;;;;2.43;1.10;;;;;;;;;;4995300;28;20601;-56
2020/12/24 06:08:45;;;;;;;1.20;1.10;;;;;;;;;;5003086;28;20599;-57
2020/12/24 06:11:10;;;;;;;2.20;1.23;;;;;;;;;;4999721;28;20672;-57
2020/12/24 06:13:36;;;;;;;4.30;1.27;;;;;;;;;;4995566;28;21161;-56
2020/12/24 06:16:03;;;;;;;1.90;1.30;;;;;;;;;;5004611;28;20193;-56
2020/12/24 06:18:30;;;;;;;2.03;1.00;;;;;;;;;;4998498;28;20684;-56
2020/12/24 06:20:58;;;;;;;2.50;1.20;;;;;;;;;;5002244;28;20609;-57
2020/12/24 06:23:23;;;;;;;1.20;1.10;;;;;;;;;;4998319;28;20590;-57
2020/12/24 06:25:49;;;;;;;1.90;1.07;;;;;;;;;;5001706;28;20678;-57
2020/12/24 06:28:15;;;;;;;1.30;0.93;;;;;;;;;;4998573;28;20608;-57
2020/12/24 06:30:40;;;;;;;1.47;1.10;;;;;;;;;;4999794;28;20667;-57
2020/12/24 06:33:09;;;;;;;2.40;1.20;;;;;;;;;;4997842;28;20702;-57
2020/12/24 06:35:35;;;;;;;1.77;1.10;;;;;;;;;;5000690;28;20183;-56
2020/12/24 06:38:00;;;;;;;1.17;1.00;;;;;;;;;;5000552;28;21029;-56
2020/12/24 06:40:29;;;;;;;1.07;0.90;;;;;;;;;;4996148;28;20205;-56
2020/12/24 06:42:54;;;;;;;2.00;0.90;;;;;;;;;;5001317;28;20168;-57
2020/12/24 06:45:19;;;;;;;1.17;1.07;;;;;;;;;;5004452;28;21110;-56
2020/12/24 06:48:04;;;;;;;1.10;1.10;;;;;;;;;;4999419;28;20209;-57
2020/12/24 06:50:39;;;;;;;1.60;1.50;;;;;;;;;;5003176;28;20251;-56
2020/12/24 06:53:23;;;;;;;1.50;1.13;;;;;;;;;;4999365;28;20663;-56
2020/12/24 06:56:07;;;;;;;1.43;1.20;;;;;;;;;;4996777;28;20601;-57
2020/12/24 06:58:39;;;;;;;1.10;1.00;;;;;;;;;;5000484;28;20647;-57
2020/12/24 07:01:04;;;;;;;1.87;1.20;;;;;;;;;;5007930;28;20679;-56
2020/12/24 07:03:30;;;;;;;2.33;1.30;;;;;;;;;;5002481;28;21161;-57
2020/12/24 07:05:55;;;;;;;1.83;1.20;;;;;;;;;;4995135;28;20206;-57
2020/12/24 07:08:33;;;;;;;2.13;1.20;;;;;;;;;;5003485;28;20623;-56
2020/12/24 07:10:58;;;;;;;2.30;1.30;;;;;;;;;;4999673;28;20191;-55
2020/12/24 07:13:36;;;;;;;2.07;1.10;;;;;;;;;;4997880;28;20604;-57
2020/12/24 07:16:01;;;;;;;1.03;1.00;;;;;;;;;;4991526;28;20611;-56
2020/12/24 07:18:29;;;;;;;2.60;1.10;;;;;;;;;;4994714;28;20989;-56
2020/12/24 07:20:58;;;;;;;1.53;1.13;;;;;;;;;;4996149;28;20175;-57
2020/12/24 07:23:30;;;;;;;2.73;0.90;;;;;;;;;;4990610;28;20604;-56
2020/12/24 07:25:55;;;;;;;2.70;1.30;;;;;;;;;;4999739;28;20701;-56
2020/12/24 07:28:20;;;;;;;2.40;1.10;;;;;;;;;;4996690;28;21041;-57
2020/12/24 07:30:54;;;;;;;1.77;0.90;;;;;;;;;;4995571;28;20181;-57
2020/12/24 07:33:19;;;;;;;3.20;1.63;;;;;;;;;;4995230;28;20198;-57
2020/12/24 07:35:44;;;;;;;3.78;1.77;;;;;;;;;;5000576;28;20610;-56
2020/12/24 07:38:09;;;;;;;4.68;1.33;;;;;;;;;;4998589;28;20211;-56
2020/12/24 07:40:35;;;;;;;1.48;1.20;;;;;;;;;;5002259;28;20263;-56
2020/12/24 07:43:07;;;;;;;2.00;1.10;;;;;;;;;;5008524;28;20274;-57
2020/12/24 07:45:32;;;;;;;2.63;1.30;;;;;;;;;;5002619;28;20216;-56
2020/12/24 07:47:57;;;;;;;1.90;1.40;;;;;;;;;;5005130;28;20625;-56
2020/12/24 07:50:31;;;;;;;1.88;1.20;;;;;;;;;;5005418;28;20196;-57
2020/12/24 07:52:56;;;;;;;3.37;1.50;;;;;;;;;;5011683;28;20188;-56
2020/12/24 07:55:21;;;;;;;2.50;1.47;;;;;;;;;;4997462;28;20649;-56
2020/12/24 07:57:47;;;;;;;2.17;1.20;;;;;;;;;;5013150;28;20276;-57
2020/12/24 08:00:12;;;;;;;2.55;2.38;;;;;;;;;;5005147;28;20199;-58
2020/12/24 08:02:37;;;;;;;1.73;1.60;;;;;;;;;;5009828;28;20217;-57
2020/12/24 08:05:02;;;;;;;2.93;1.50;;;;;;;;;;5012118;28;20856;-58
2020/12/24 08:07:27;;;;;;;3.87;1.67;;;;;;;;;;5004670;28;20183;-58
2020/12/24 08:09:53;;;;;;;3.83;2.80;;;;;;;;;;5013377;28;20188;-57
2020/12/24 08:12:22;;;;;;;2.73;2.03;;;;;;;;;;5017924;28;20260;-58
2020/12/24 08:14:47;;;;;;;2.50;1.70;;;;;;;;;;5010988;28;20264;-57
2020/12/24 08:17:17;;;;;;;2.25;1.65;;;;;;;;;;5018051;28;20703;-57
2020/12/24 08:19:48;;;;;;;3.47;1.67;;;;;;;;;;5013724;28;20200;-57
2020/12/24 08:22:19;;;;;;;1.37;1.27;;;;;;;;;;5013529;28;20606;-57
2020/12/24 08:24:45;;;;;;;4.00;1.40;;;;;;;;;;5015044;28;21178;-56
2020/12/24 08:27:10;;;;;;;2.23;1.17;;;;;;;;;;5016677;28;20693;-56
2020/12/24 08:29:36;;;;;;;3.23;1.43;;;;;;;;;;5018911;28;20188;-56
2020/12/24 08:32:01;;;;;;;3.10;1.57;;;;;;;;;;5020363;28;20183;-57
2020/12/24 08:34:29;;;;;;;3.83;2.17;;;;;;;;;;5006133;28;21039;-56
2020/12/24 08:36:54;;;;;;;4.73;2.13;;;;;;;;;;5016961;28;20193;-56
2020/12/24 08:39:19;;;;;;;2.80;1.63;;;;;;;;;;5019177;28;20702;-55
2020/12/24 08:41:45;;;;;;;3.27;1.60;;;;;;;;;;5014239;28;20170;-57
2020/12/24 08:44:16;;;;;;;6.67;2.10;;;;;;;;;;5008122;28;20174;-57
2020/12/24 08:46:41;;;;;;;2.83;2.20;;;;;;;;;;5005672;28;20591;-57
2020/12/24 08:49:16;;;;;;;3.37;1.97;;;;;;;;;;5012772;28;20605;-57
2020/12/24 08:51:41;;;;;;;2.13;1.40;;;;;;;;;;5013863;28;20186;-57
2020/12/24 08:54:07;;;;;;;3.13;1.80;;;;;;;;;;5002494;28;20609;-57
2020/12/24 08:56:32;;;;;;;3.67;1.77;;;;;;;;;;5009895;28;20178;-57
2020/12/24 08:58:57;;;;;;;1.97;1.70;;;;;;;;;;5021695;28;20257;-58
2020/12/24 09:01:23;;;;;;;4.72;1.60;;;;;;;;;;5014074;28;20182;-57
2020/12/24 09:03:48;;;;;;;4.00;1.88;;;;;;;;;;5022958;28;20193;-57
2020/12/24 09:06:13;;;;;;;3.43;1.93;;;;;;;;;;5016373;28;20642;-57
2020/12/24 09:08:40;;;;;;;2.63;1.40;;;;;;;;;;5020529;28;20184;-57
2020/12/24 09:11:05;;;;;;;4.43;1.80;;;;;;;;;;5018624;28;20181;-57
2020/12/24 09:13:30;;;;;;;2.37;1.63;;;;;;;;;;5021785;28;20955;-57
2020/12/24 09:15:55;;;;;;;3.20;1.30;;;;;;;;;;5020225;28;20194;-55
2020/12/24 09:18:21;;;;;;;3.40;1.67;;;;;;;;;;5001993;28;20246;-55
2020/12/24 09:20:47;;;;;;;2.33;1.60;;;;;;;;;;5005657;28;20176;-47
2020/12/24 09:23:18;;;;;;;2.70;1.70;;;;;;;;;;5011075;28;20603;-49
2020/12/24 09:25:44;;;;;;;2.50;1.17;;;;;;;;;;5014237;28;20600;-47
2020/12/24 09:28:30;;;;;;;3.63;1.70;;;;;;;;;;4998073;28;20716;-49
2020/12/24 09:30:59;;;;;;;3.27;1.50;;;;;;;;;;5010407;28;20208;-49
2020/12/24 09:33:25;;;;;;;2.60;1.50;;;;;;;;;;5015361;28;20601;-49
2020/12/24 09:35:50;;;;;;;2.57;1.40;;;;;;;;;;5010966;28;20595;-49
2020/12/24 09:38:15;;;;;;;7.05;2.13;;;;;;;;;;5009830;28;20492;-47
2020/12/24 09:40:40;;;;;;;4.00;1.70;;;;;;;;;;5014772;28;20179;-47
2020/12/24 09:43:06;;;;;;;3.47;1.80;;;;;;;;;;5014712;28;20174;-47
2020/12/24 09:45:31;;;;;;;3.53;1.50;;;;;;;;;;5018327;28;20178;-47
2020/12/24 09:47:57;;;;;;;2.80;1.80;;;;;;;;;;5014190;28;20604;-47
2020/12/24 09:50:23;;;;;;;2.10;1.40;;;;;;;;;;5007854;28;20184;-47
2020/12/24 09:52:48;;;;;;;5.97;2.00;;;;;;;;;;5018911;28;20617;-47
2020/12/24 09:55:14;;;;;;;3.47;1.80;;;;;;;;;;5002671;28;20181;-47
2020/12/24 09:57:39;;;;;;;4.20;2.03;;;;;;;;;;5018532;28;20188;-47
2020/12/24 10:00:04;;;;;;;2.78;1.48;;;;;;;;;;5010757;28;20220;-47
2020/12/24 10:02:30;;;;;;;3.87;1.60;;;;;;;;;;5019111;28;20181;-47
2020/12/24 10:04:55;;;;;;;3.20;1.50;;;;;;;;;;5015063;28;20217;-48
2020/12/24 10:07:24;;;;;;;2.47;1.17;;;;;;;;;;5005951;28;20184;-48
2020/12/24 10:09:49;;;;;;;3.53;1.40;;;;;;;;;;5010709;28;20196;-48
2020/12/24 10:12:15;;;;;;;2.33;1.50;;;;;;;;;;5015647;28;20591;-47
2020/12/24 10:14:40;;;;;;;3.33;1.40;;;;;;;;;;5005754;28;20210;-47
2020/12/24 10:17:05;;;;;;;2.50;1.23;;;;;;;;;;5013275;28;20764;-47
2020/12/24 10:19:30;;;;;;;1.90;1.40;;;;;;;;;;5015570;28;20669;-49
2020/12/24 10:21:55;;;;;;;3.37;1.60;;;;;;;;;;5021463;28;20193;-48
2020/12/24 10:24:22;;;;;;;2.85;1.75;;;;;;;;;;5012421;28;20277;-48
2020/12/24 10:26:47;;;;;;;3.50;1.57;;;;;;;;;;5002576;28;20225;-48
2020/12/24 10:29:12;;;;;;;1.88;1.58;;;;;;;;;;5009790;28;20788;-48
2020/12/24 10:31:41;;;;;;;1.60;1.10;;;;;;;;;;5004425;28;20203;-48
2020/12/24 10:34:06;;;;;;;3.80;1.63;;;;;;;;;;5000711;28;20196;-48
2020/12/24 10:36:31;;;;;;;3.03;1.60;;;;;;;;;;4999160;28;20607;-47
2020/12/24 10:38:56;;;;;;;3.00;1.33;;;;;;;;;;5002944;28;20634;-47
2020/12/24 10:41:22;;;;;;;2.47;1.17;;;;;;;;;;5003271;28;20271;-48
2020/12/24 10:43:47;;;;;;;2.97;1.30;;;;;;;;;;4992458;28;20179;-48
2020/12/24 10:46:21;;;;;;;3.13;1.48;;;;;;;;;;4989285;28;20180;-49
2020/12/24 10:48:46;;;;;;;2.53;1.20;;;;;;;;;;5001628;28;20255;-49
2020/12/24 10:51:13;;;;;;;2.10;1.23;;;;;;;;;;5013735;28;20702;-48
2020/12/24 10:53:38;;;;;;;1.27;1.17;;;;;;;;;;4990636;28;20204;-49
2020/12/24 10:56:03;;;;;;;4.83;1.77;;;;;;;;;;4989123;28;21236;-49
2020/12/24 10:58:28;;;;;;;1.20;1.10;;;;;;;;;;4997846;28;20758;-48
2020/12/24 11:00:53;;;;;;;1.73;1.10;;;;;;;;;;4995678;28;20265;-49
2020/12/24 11:03:20;;;;;;;3.85;1.38;;;;;;;;;;4993770;28;20604;-48
2020/12/24 11:05:46;;;;;;;1.27;1.17;;;;;;;;;;5013681;28;20195;-48
2020/12/24 11:08:11;;;;;;;4.60;1.40;;;;;;;;;;5001674;28;20632;-48
2020/12/24 11:10:36;;;;;;;1.85;1.58;;;;;;;;;;4992191;28;20207;-48
2020/12/24 11:13:01;;;;;;;0.93;0.90;;;;;;;;;;4992792;28;20177;-48
2020/12/24 11:15:26;;;;;;;1.55;1.20;;;;;;;;;;5000499;28;20189;-48
2020/12/24 11:17:51;;;;;;;2.97;1.03;;;;;;;;;;5002462;28;20594;-48
2020/12/24 11:20:16;;;;;;;1.80;0.98;;;;;;;;;;5005019;28;20184;-48
2020/12/24 11:22:42;;;;;;;1.00;1.00;;;;;;;;;;5003586;28;20189;-48
2020/12/24 11:25:07;;;;;;;1.50;0.90;;;;;;;;;;4995488;28;20676;-50
2020/12/24 11:27:32;;;;;;;1.70;1.20;;;;;;;;;;5009346;28;20224;-48
2020/12/24 11:29:57;;;;;;;2.20;1.00;;;;;;;;;;5010745;28;20274;-49
2020/12/24 11:32:22;;;;;;;2.25;1.20;;;;;;;;;;4999007;28;20181;-48
2020/12/24 11:34:48;;;;;;;1.17;0.93;;;;;;;;;;4991080;28;20280;-48
2020/12/24 11:37:13;;;;;;;1.20;0.90;;;;;;;;;;5015616;28;20264;-49
2020/12/24 11:39:38;;;;;;;1.17;0.97;;;;;;;;;;4994041;28;20699;-48
2020/12/24 11:42:03;;;;;;;1.38;1.20;;;;;;;;;;5013563;28;20268;-48
2020/12/24 11:44:28;;;;;;;1.10;0.93;;;;;;;;;;5014023;28;20172;-48
2020/12/24 11:46:53;;;;;;;3.50;1.30;;;;;;;;;;5005012;28;20666;-48
2020/12/24 11:49:19;;;;;;;1.10;0.93;;;;;;;;;;5013731;28;20183;-49
2020/12/24 11:51:44;;;;;;;2.67;1.25;;;;;;;;;;5014821;28;20275;-48
2020/12/24 11:54:09;;;;;;;1.43;1.00;;;;;;;;;;5005052;28;20182;-49
2020/12/24 11:56:34;;;;;;;1.20;1.10;;;;;;;;;;5004147;28;20236;-49
2020/12/24 11:58:59;;;;;;;1.00;0.90;;;;;;;;;;5006123;28;20221;-49
2020/12/24 12:01:24;;;;;;;1.43;0.80;;;;;;;;;;5016188;28;20165;-49
2020/12/24 12:03:50;;;;;;;3.10;0.85;;;;;;;;;;5009656;28;20176;-49
2020/12/24 12:06:16;;;;;;;1.43;0.77;;;;;;;;;;5006884;28;20185;-47
2020/12/24 12:08:41;;;;;;;1.37;1.00;;;;;;;;;;5012969;28;20198;-48
2020/12/24 12:11:07;;;;;;;1.00;0.83;;;;;;;;;;5011929;28;20627;-48
2020/12/24 12:13:38;;;;;;;1.43;1.00;;;;;;;;;;5012648;28;20180;-48
2020/12/24 12:16:08;;;;;;;1.53;1.10;;;;;;;;;;5019400;28;20179;-48
2020/12/24 12:18:33;;;;;;;1.00;0.80;;;;;;;;;;5001379;28;20745;-48
2020/12/24 12:20:59;;;;;;;2.13;0.80;;;;;;;;;;5011134;28;20691;-48
2020/12/24 12:23:24;;;;;;;0.77;0.77;;;;;;;;;;5002585;28;20189;-48
2020/12/24 12:25:49;;;;;;;1.60;0.70;;;;;;;;;;4999990;28;20172;-47
2020/12/24 12:28:14;;;;;;;1.13;0.70;;;;;;;;;;5010154;28;20237;-48
2020/12/24 12:30:39;;;;;;;0.95;0.95;;;;;;;;;;5012605;28;20177;-47
2020/12/24 12:33:05;;;;;;;1.10;0.80;;;;;;;;;;5015598;28;20173;-47
2020/12/24 12:35:30;;;;;;;1.50;0.80;;;;;;;;;;5009272;28;20553;-48
2020/12/24 12:37:55;;;;;;;1.47;1.20;;;;;;;;;;5017914;28;20268;-48
2020/12/24 12:40:20;;;;;;;0.82;0.80;;;;;;;;;;5006882;28;20187;-48
2020/12/24 12:42:45;;;;;;;1.20;0.80;;;;;;;;;;5001020;28;20273;-47
2020/12/24 12:45:11;;;;;;;1.13;1.10;;;;;;;;;;5016701;28;20178;-47
2020/12/24 12:47:37;;;;;;;2.55;1.15;;;;;;;;;;5015630;28;20318;-48
2020/12/24 12:50:03;;;;;;;1.23;1.10;;;;;;;;;;5015191;28;20244;-47
2020/12/24 12:52:29;;;;;;;0.90;0.90;;;;;;;;;;5016763;28;21520;-48
2020/12/24 12:54:54;;;;;;;1.07;1.00;;;;;;;;;;5002991;28;20705;-47
2020/12/24 12:57:19;;;;;;;1.25;1.15;;;;;;;;;;4994842;28;20587;-47
2020/12/24 12:59:44;;;;;;;0.93;0.93;;;;;;;;;;5018129;28;20209;-47
2020/12/24 13:02:09;;;;;;;1.83;1.20;;;;;;;;;;5013119;28;20179;-48
2020/12/24 13:04:35;;;;;;;0.93;0.80;;;;;;;;;;5007449;28;20213;-47
2020/12/24 13:07:00;;;;;;;1.27;0.90;;;;;;;;;;5008020;28;20225;-48
2020/12/24 13:09:25;;;;;;;1.00;1.00;;;;;;;;;;5019062;28;20201;-48
2020/12/24 13:11:51;;;;;;;0.80;0.80;;;;;;;;;;5019259;28;20221;-47
2020/12/24 13:14:19;;;;;;;0.80;0.80;;;;;;;;;;5012076;28;20200;-48
2020/12/24 13:16:45;;;;;;;1.40;1.17;;;;;;;;;;5006462;28;20596;-48
2020/12/24 13:19:10;;;;;;;1.67;1.27;;;;;;;;;;4994739;28;20664;-48
2020/12/24 13:21:35;;;;;;;0.90;0.90;;;;;;;;;;4999373;28;20941;-47
2020/12/24 13:24:00;;;;;;;1.13;1.02;;;;;;;;;;5009255;28;20209;-48
2020/12/24 13:26:26;;;;;;;1.07;0.97;;;;;;;;;;5011752;28;20214;-48
2020/12/24 13:28:51;;;;;;;1.47;0.90;;;;;;;;;;5003643;28;20189;-47
2020/12/24 13:31:16;;;;;;;1.85;1.30;;;;;;;;;;5006265;28;20183;-47
2020/12/24 13:33:41;;;;;;;1.50;0.80;;;;;;;;;;5006090;28;20497;-48
2020/12/24 13:36:06;;;;;;;2.15;0.95;;;;;;;;;;4995451;28;20214;-47
2020/12/24 13:38:32;;;;;;;1.07;1.07;;;;;;;;;;5002077;28;20214;-47
2020/12/24 13:40:57;;;;;;;0.87;0.80;;;;;;;;;;5015354;28;20245;-47
2020/12/24 13:43:22;;;;;;;1.30;1.10;;;;;;;;;;5007084;28;20199;-47
2020/12/24 13:45:47;;;;;;;0.73;0.73;;;;;;;;;;5013968;28;20528;-48
2020/12/24 13:48:12;;;;;;;1.13;1.00;;;;;;;;;;5019080;28;20175;-48
2020/12/24 13:50:38;;;;;;;0.90;0.85;;;;;;;;;;5016828;28;20181;-47
2020/12/24 13:53:03;;;;;;;0.80;0.80;;;;;;;;;;5010656;28;20681;-46
2020/12/24 13:55:28;;;;;;;1.27;0.90;;;;;;;;;;5020917;28;20171;-47
2020/12/24 13:57:54;;;;;;;0.90;0.90;;;;;;;;;;5005165;28;20220;-47
2020/12/24 14:00:19;;;;;;;0.70;0.70;;;;;;;;;;5010024;28;20184;-49
2020/12/24 14:02:44;;;;;;;0.80;0.80;;;;;;;;;;5008233;28;20208;-47
2020/12/24 14:05:15;;;;;;;2.40;1.00;;;;;;;;;;5016654;28;20273;-48
2020/12/24 14:07:40;;;;;;;1.43;0.90;;;;;;;;;;5019354;28;20225;-47
2020/12/24 14:10:05;;;;;;;1.35;1.25;;;;;;;;;;5017330;28;21163;-47
2020/12/24 14:12:31;;;;;;;1.70;1.60;;;;;;;;;;5023214;28;20169;-48
2020/12/24 14:14:56;;;;;;;2.30;2.20;;;;;;;;;;5012968;28;20192;-47
2020/12/24 14:17:21;;;;;;;2.43;2.23;;;;;;;;;;5013976;28;20642;-47
2020/12/24 14:19:46;;;;;;;2.80;2.60;;;;;;;;;;5012806;28;20246;-47
2020/12/24 14:22:12;;;;;;;2.67;2.47;;;;;;;;;;5020160;28;20207;-47
2020/12/24 14:24:37;;;;;;;2.03;1.93;;;;;;;;;;4996387;28;20185;-48
2020/12/24 14:27:03;;;;;;;1.90;1.80;;;;;;;;;;5018333;28;20787;-47
2020/12/24 14:29:28;;;;;;;1.50;1.40;;;;;;;;;;5015881;28;20170;-47
2020/12/24 14:31:53;;;;;;;1.80;1.70;;;;;;;;;;5017941;28;20654;-47
2020/12/24 14:34:19;;;;;;;1.53;1.43;;;;;;;;;;5017485;28;20180;-47
2020/12/24 14:36:45;;;;;;;1.60;1.50;;;;;;;;;;5011407;28;20706;-48